sensor_id;sensor_type;location;lat;lon;timestamp;P1;durP1;ratioP1;P2;durP2;ratioP2
40637;SDS011;26336;44.696;10.622;2023-03-01T00:02:08;46.00;;;28.80;;
40637;SDS011;26336;44.696;10.622;2023-03-01T00:05:12;44.30;;;29.30;;
40637;SDS011;26336;44.696;10.622;2023-03-01T00:08:16;37.63;;;27.07;;
40637;SDS011;26336;44.696;10.622;2023-03-01T00:11:21;41.93;;;27.57;;
40637;SDS011;26336;44.696;10.622;2023-03-01T00:14:29;41.30;;;27.93;;
40637;SDS011;26336;44.696;10.622;2023-03-01T00:17:33;41.47;;;27.83;;
40637;SDS011;26336;44.696;10.622;2023-03-01T00:20:37;38.97;;;26.47;;
40637;SDS011;26336;44.696;10.622;2023-03-01T00:23:40;38.80;;;27.73;;
40637;SDS011;26336;44.696;10.622;2023-03-01T00:26:44;43.30;;;27.73;;
40637;SDS011;26336;44.696;10.622;2023-03-01T00:29:49;39.50;;;27.37;;
40637;SDS011;26336;44.696;10.622;2023-03-01T00:32:53;39.30;;;26.47;;
40637;SDS011;26336;44.696;10.622;2023-03-01T00:35:57;42.90;;;27.83;;
40637;SDS011;26336;44.696;10.622;2023-03-01T00:39:04;45.17;;;28.70;;
40637;SDS011;26336;44.696;10.622;2023-03-01T00:42:11;40.73;;;26.90;;
40637;SDS011;26336;44.696;10.622;2023-03-01T00:45:14;38.67;;;27.67;;
40637;SDS011;26336;44.696;10.622;2023-03-01T00:48:18;37.33;;;25.73;;
40637;SDS011;26336;44.696;10.622;2023-03-01T00:51:23;40.30;;;26.33;;
40637;SDS011;26336;44.696;10.622;2023-03-01T00:54:29;37.40;;;25.87;;
40637;SDS011;26336;44.696;10.622;2023-03-01T00:57:34;40.10;;;27.20;;
40637;SDS011;26336;44.696;10.622;2023-03-01T01:00:37;39.40;;;26.07;;
40637;SDS011;26336;44.696;10.622;2023-03-01T01:03:41;39.50;;;25.83;;
40637;SDS011;26336;44.696;10.622;2023-03-01T01:06:55;39.20;;;27.37;;
40637;SDS011;26336;44.696;10.622;2023-03-01T01:09:59;39.63;;;26.57;;
40637;SDS011;26336;44.696;10.622;2023-03-01T01:13:03;39.70;;;28.03;;
40637;SDS011;26336;44.696;10.622;2023-03-01T01:16:07;40.07;;;26.23;;
40637;SDS011;26336;44.696;10.622;2023-03-01T01:19:11;39.70;;;25.23;;
40637;SDS011;26336;44.696;10.622;2023-03-01T01:22:16;37.77;;;25.27;;
40637;SDS011;26336;44.696;10.622;2023-03-01T01:25:20;40.20;;;27.20;;
40637;SDS011;26336;44.696;10.622;2023-03-01T01:28:24;38.83;;;26.40;;
40637;SDS011;26336;44.696;10.622;2023-03-01T01:31:28;40.13;;;26.10;;
40637;SDS011;26336;44.696;10.622;2023-03-01T01:34:33;35.83;;;24.93;;
40637;SDS011;26336;44.696;10.622;2023-03-01T01:37:37;38.23;;;25.93;;
40637;SDS011;26336;44.696;10.622;2023-03-01T01:40:45;36.70;;;26.33;;
40637;SDS011;26336;44.696;10.622;2023-03-01T01:44:09;39.17;;;26.40;;
40637;SDS011;26336;44.696;10.622;2023-03-01T01:47:17;37.63;;;25.30;;
40637;SDS011;26336;44.696;10.622;2023-03-01T01:50:25;38.27;;;25.57;;
40637;SDS011;26336;44.696;10.622;2023-03-01T01:53:30;34.23;;;24.33;;
40637;SDS011;26336;44.696;10.622;2023-03-01T01:56:34;30.67;;;22.30;;
40637;SDS011;26336;44.696;10.622;2023-03-01T01:59:40;32.40;;;22.70;;
40637;SDS011;26336;44.696;10.622;2023-03-01T02:02:49;32.47;;;21.90;;
40637;SDS011;26336;44.696;10.622;2023-03-01T02:06:19;33.73;;;23.10;;
40637;SDS011;26336;44.696;10.622;2023-03-01T02:09:34;39.30;;;24.77;;
40637;SDS011;26336;44.696;10.622;2023-03-01T02:12:39;36.83;;;23.77;;
40637;SDS011;26336;44.696;10.622;2023-03-01T02:15:43;38.93;;;24.37;;
40637;SDS011;26336;44.696;10.622;2023-03-01T02:18:47;35.33;;;23.00;;
40637;SDS011;26336;44.696;10.622;2023-03-01T02:21:56;30.73;;;21.50;;
40637;SDS011;26336;44.696;10.622;2023-03-01T02:28:36;30.60;;;21.87;;
40637;SDS011;26336;44.696;10.622;2023-03-01T02:31:42;31.97;;;22.80;;
40637;SDS011;26336;44.696;10.622;2023-03-01T02:34:48;35.20;;;21.73;;
40637;SDS011;26336;44.696;10.622;2023-03-01T02:37:52;39.30;;;22.93;;
40637;SDS011;26336;44.696;10.622;2023-03-01T02:41:00;30.47;;;19.83;;
40637;SDS011;26336;44.696;10.622;2023-03-01T02:44:06;27.20;;;17.73;;
40637;SDS011;26336;44.696;10.622;2023-03-01T02:47:12;25.17;;;16.70;;
40637;SDS011;26336;44.696;10.622;2023-03-01T02:50:25;33.47;;;20.63;;
40637;SDS011;26336;44.696;10.622;2023-03-01T02:53:53;31.67;;;20.87;;
40637;SDS011;26336;44.696;10.622;2023-03-01T02:57:00;38.60;;;24.27;;
40637;SDS011;26336;44.696;10.622;2023-03-01T03:00:08;37.57;;;23.90;;
40637;SDS011;26336;44.696;10.622;2023-03-01T03:03:22;31.93;;;21.13;;
40637;SDS011;26336;44.696;10.622;2023-03-01T03:06:27;35.37;;;23.53;;
40637;SDS011;26336;44.696;10.622;2023-03-01T03:09:31;36.77;;;23.47;;
40637;SDS011;26336;44.696;10.622;2023-03-01T03:12:35;34.07;;;22.13;;
40637;SDS011;26336;44.696;10.622;2023-03-01T03:15:40;33.30;;;21.93;;
40637;SDS011;26336;44.696;10.622;2023-03-01T03:18:45;29.87;;;21.80;;
40637;SDS011;26336;44.696;10.622;2023-03-01T03:21:49;33.17;;;20.50;;
40637;SDS011;26336;44.696;10.622;2023-03-01T03:24:53;31.37;;;20.70;;
40637;SDS011;26336;44.696;10.622;2023-03-01T03:27:57;30.30;;;20.87;;
40637;SDS011;26336;44.696;10.622;2023-03-01T03:31:01;33.43;;;20.33;;
40637;SDS011;26336;44.696;10.622;2023-03-01T03:34:08;28.57;;;19.43;;
40637;SDS011;26336;44.696;10.622;2023-03-01T03:37:20;25.60;;;18.58;;
40637;SDS011;26336;44.696;10.622;2023-03-01T03:40:43;30.73;;;20.10;;
40637;SDS011;26336;44.696;10.622;2023-03-01T03:43:52;25.43;;;18.63;;
40637;SDS011;26336;44.696;10.622;2023-03-01T03:46:56;27.73;;;18.60;;
40637;SDS011;26336;44.696;10.622;2023-03-01T03:50:00;29.43;;;19.00;;
40637;SDS011;26336;44.696;10.622;2023-03-01T03:53:09;26.67;;;18.93;;
40637;SDS011;26336;44.696;10.622;2023-03-01T03:56:14;28.43;;;19.23;;
40637;SDS011;26336;44.696;10.622;2023-03-01T03:59:18;28.53;;;20.03;;
40637;SDS011;26336;44.696;10.622;2023-03-01T04:02:22;29.87;;;19.07;;
40637;SDS011;26336;44.696;10.622;2023-03-01T04:05:26;26.10;;;18.53;;
40637;SDS011;26336;44.696;10.622;2023-03-01T04:08:31;27.20;;;18.10;;
40637;SDS011;26336;44.696;10.622;2023-03-01T04:11:35;31.57;;;20.53;;
40637;SDS011;26336;44.696;10.622;2023-03-01T04:14:39;33.20;;;20.57;;
40637;SDS011;26336;44.696;10.622;2023-03-01T04:17:43;27.17;;;18.70;;
40637;SDS011;26336;44.696;10.622;2023-03-01T04:20:50;29.40;;;19.67;;
40637;SDS011;26336;44.696;10.622;2023-03-01T04:23:55;29.73;;;19.47;;
40637;SDS011;26336;44.696;10.622;2023-03-01T04:26:59;27.20;;;19.40;;
40637;SDS011;26336;44.696;10.622;2023-03-01T04:30:03;28.93;;;19.80;;
40637;SDS011;26336;44.696;10.622;2023-03-01T04:33:08;27.53;;;19.83;;
40637;SDS011;26336;44.696;10.622;2023-03-01T04:36:13;31.67;;;20.43;;
40637;SDS011;26336;44.696;10.622;2023-03-01T04:39:20;31.10;;;20.80;;
40637;SDS011;26336;44.696;10.622;2023-03-01T04:42:24;31.90;;;19.57;;
40637;SDS011;26336;44.696;10.622;2023-03-01T04:45:28;27.97;;;20.37;;
40637;SDS011;26336;44.696;10.622;2023-03-01T04:48:34;29.90;;;20.63;;
40637;SDS011;26336;44.696;10.622;2023-03-01T04:51:38;29.00;;;19.63;;
40637;SDS011;26336;44.696;10.622;2023-03-01T04:54:42;27.60;;;19.37;;
40637;SDS011;26336;44.696;10.622;2023-03-01T04:57:46;27.43;;;19.63;;
40637;SDS011;26336;44.696;10.622;2023-03-01T05:00:51;29.93;;;19.27;;
40637;SDS011;26336;44.696;10.622;2023-03-01T05:03:56;25.40;;;18.40;;
40637;SDS011;26336;44.696;10.622;2023-03-01T05:07:06;26.90;;;19.03;;
40637;SDS011;26336;44.696;10.622;2023-03-01T05:10:10;24.67;;;18.40;;
40637;SDS011;26336;44.696;10.622;2023-03-01T05:13:14;28.33;;;18.03;;
40637;SDS011;26336;44.696;10.622;2023-03-01T05:16:24;29.07;;;19.13;;
40637;SDS011;26336;44.696;10.622;2023-03-01T05:19:28;28.03;;;18.97;;
40637;SDS011;26336;44.696;10.622;2023-03-01T05:22:34;25.87;;;17.40;;
40637;SDS011;26336;44.696;10.622;2023-03-01T05:25:39;26.07;;;18.20;;
40637;SDS011;26336;44.696;10.622;2023-03-01T05:28:45;28.70;;;19.37;;
40637;SDS011;26336;44.696;10.622;2023-03-01T05:31:51;29.50;;;19.37;;
40637;SDS011;26336;44.696;10.622;2023-03-01T05:34:57;29.73;;;20.70;;
40637;SDS011;26336;44.696;10.622;2023-03-01T05:38:01;24.80;;;18.47;;
40637;SDS011;26336;44.696;10.622;2023-03-01T05:41:04;30.50;;;20.53;;
40637;SDS011;26336;44.696;10.622;2023-03-01T05:44:08;30.53;;;20.63;;
40637;SDS011;26336;44.696;10.622;2023-03-01T05:47:12;29.00;;;19.23;;
40637;SDS011;26336;44.696;10.622;2023-03-01T05:50:21;31.93;;;19.60;;
40637;SDS011;26336;44.696;10.622;2023-03-01T05:53:27;25.43;;;18.53;;
40637;SDS011;26336;44.696;10.622;2023-03-01T05:56:32;28.93;;;19.43;;
40637;SDS011;26336;44.696;10.622;2023-03-01T05:59:40;27.47;;;20.37;;
40637;SDS011;26336;44.696;10.622;2023-03-01T06:02:44;32.43;;;20.47;;
40637;SDS011;26336;44.696;10.622;2023-03-01T06:05:48;31.47;;;19.37;;
40637;SDS011;26336;44.696;10.622;2023-03-01T06:08:52;33.47;;;21.83;;
40637;SDS011;26336;44.696;10.622;2023-03-01T06:11:56;34.03;;;22.77;;
40637;SDS011;26336;44.696;10.622;2023-03-01T06:15:00;33.90;;;20.67;;
40637;SDS011;26336;44.696;10.622;2023-03-01T06:18:05;29.20;;;20.03;;
40637;SDS011;26336;44.696;10.622;2023-03-01T06:21:09;24.87;;;16.23;;
40637;SDS011;26336;44.696;10.622;2023-03-01T06:24:13;25.10;;;16.63;;
40637;SDS011;26336;44.696;10.622;2023-03-01T06:27:17;30.20;;;19.17;;
40637;SDS011;26336;44.696;10.622;2023-03-01T06:30:21;26.07;;;16.90;;
40637;SDS011;26336;44.696;10.622;2023-03-01T06:33:27;24.07;;;15.57;;
40637;SDS011;26336;44.696;10.622;2023-03-01T06:36:30;21.37;;;15.40;;
40637;SDS011;26336;44.696;10.622;2023-03-01T06:39:34;24.77;;;14.27;;
40637;SDS011;26336;44.696;10.622;2023-03-01T06:42:40;21.90;;;14.73;;
40637;SDS011;26336;44.696;10.622;2023-03-01T06:45:54;23.80;;;15.17;;
40637;SDS011;26336;44.696;10.622;2023-03-01T06:48:58;24.17;;;16.07;;
40637;SDS011;26336;44.696;10.622;2023-03-01T06:52:02;23.67;;;15.57;;
40637;SDS011;26336;44.696;10.622;2023-03-01T06:55:06;21.43;;;14.70;;
40637;SDS011;26336;44.696;10.622;2023-03-01T06:58:11;24.07;;;15.83;;
40637;SDS011;26336;44.696;10.622;2023-03-01T07:01:15;26.37;;;16.30;;
40637;SDS011;26336;44.696;10.622;2023-03-01T07:04:19;25.80;;;16.90;;
40637;SDS011;26336;44.696;10.622;2023-03-01T07:07:23;27.37;;;17.23;;
40637;SDS011;26336;44.696;10.622;2023-03-01T07:10:27;27.73;;;18.13;;
40637;SDS011;26336;44.696;10.622;2023-03-01T07:13:32;26.67;;;18.13;;
40637;SDS011;26336;44.696;10.622;2023-03-01T07:16:36;25.37;;;17.53;;
40637;SDS011;26336;44.696;10.622;2023-03-01T07:19:40;25.23;;;16.53;;
40637;SDS011;26336;44.696;10.622;2023-03-01T07:22:44;28.27;;;17.03;;
40637;SDS011;26336;44.696;10.622;2023-03-01T07:25:54;26.90;;;16.73;;
40637;SDS011;26336;44.696;10.622;2023-03-01T07:28:59;24.57;;;16.70;;
40637;SDS011;26336;44.696;10.622;2023-03-01T07:32:04;28.90;;;17.97;;
40637;SDS011;26336;44.696;10.622;2023-03-01T07:35:08;26.97;;;16.73;;
40637;SDS011;26336;44.696;10.622;2023-03-01T07:38:12;30.20;;;19.13;;
40637;SDS011;26336;44.696;10.622;2023-03-01T07:41:17;34.37;;;20.57;;
40637;SDS011;26336;44.696;10.622;2023-03-01T07:44:21;31.80;;;19.77;;
40637;SDS011;26336;44.696;10.622;2023-03-01T07:47:25;34.97;;;21.63;;
40637;SDS011;26336;44.696;10.622;2023-03-01T07:50:29;37.23;;;21.00;;
40637;SDS011;26336;44.696;10.622;2023-03-01T07:53:33;31.17;;;19.57;;
40637;SDS011;26336;44.696;10.622;2023-03-01T07:56:37;27.37;;;18.93;;
40637;SDS011;26336;44.696;10.622;2023-03-01T07:59:41;29.13;;;19.20;;
40637;SDS011;26336;44.696;10.622;2023-03-01T08:02:45;29.67;;;20.50;;
40637;SDS011;26336;44.696;10.622;2023-03-01T08:05:49;31.17;;;19.80;;
40637;SDS011;26336;44.696;10.622;2023-03-01T08:08:53;29.60;;;19.87;;
40637;SDS011;26336;44.696;10.622;2023-03-01T08:12:01;29.20;;;20.30;;
40637;SDS011;26336;44.696;10.622;2023-03-01T08:15:05;29.80;;;19.40;;
40637;SDS011;26336;44.696;10.622;2023-03-01T08:18:09;31.77;;;19.37;;
40637;SDS011;26336;44.696;10.622;2023-03-01T08:21:15;29.30;;;18.87;;
40637;SDS011;26336;44.696;10.622;2023-03-01T08:24:20;30.60;;;20.57;;
40637;SDS011;26336;44.696;10.622;2023-03-01T08:27:24;27.87;;;19.27;;
40637;SDS011;26336;44.696;10.622;2023-03-01T08:30:28;32.20;;;19.93;;
40637;SDS011;26336;44.696;10.622;2023-03-01T08:33:32;31.60;;;19.97;;
40637;SDS011;26336;44.696;10.622;2023-03-01T08:36:37;29.37;;;21.20;;
40637;SDS011;26336;44.696;10.622;2023-03-01T08:39:43;32.30;;;21.13;;
40637;SDS011;26336;44.696;10.622;2023-03-01T08:42:47;30.17;;;19.80;;
40637;SDS011;26336;44.696;10.622;2023-03-01T08:45:52;32.17;;;21.27;;
40637;SDS011;26336;44.696;10.622;2023-03-01T08:48:56;29.47;;;19.33;;
40637;SDS011;26336;44.696;10.622;2023-03-01T08:52:01;28.97;;;18.73;;
40637;SDS011;26336;44.696;10.622;2023-03-01T08:55:05;30.87;;;20.23;;
40637;SDS011;26336;44.696;10.622;2023-03-01T08:58:09;38.10;;;23.97;;
40637;SDS011;26336;44.696;10.622;2023-03-01T09:01:15;40.30;;;25.33;;
40637;SDS011;26336;44.696;10.622;2023-03-01T09:04:20;37.77;;;24.03;;
40637;SDS011;26336;44.696;10.622;2023-03-01T09:07:24;36.50;;;23.90;;
40637;SDS011;26336;44.696;10.622;2023-03-01T09:10:31;33.23;;;21.17;;
40637;SDS011;26336;44.696;10.622;2023-03-01T09:13:35;32.57;;;21.77;;
40637;SDS011;26336;44.696;10.622;2023-03-01T09:16:39;30.53;;;20.20;;
40637;SDS011;26336;44.696;10.622;2023-03-01T09:19:43;30.00;;;20.73;;
40637;SDS011;26336;44.696;10.622;2023-03-01T09:22:48;30.77;;;18.67;;
40637;SDS011;26336;44.696;10.622;2023-03-01T09:25:52;31.93;;;20.13;;
40637;SDS011;26336;44.696;10.622;2023-03-01T09:28:56;29.97;;;19.70;;
40637;SDS011;26336;44.696;10.622;2023-03-01T09:32:00;29.87;;;20.20;;
40637;SDS011;26336;44.696;10.622;2023-03-01T09:35:04;32.20;;;20.77;;
40637;SDS011;26336;44.696;10.622;2023-03-01T09:38:09;32.83;;;21.00;;
40637;SDS011;26336;44.696;10.622;2023-03-01T09:48:37;31.23;;;20.70;;
40637;SDS011;26336;44.696;10.622;2023-03-01T09:55:34;28.23;;;18.50;;
40637;SDS011;26336;44.696;10.622;2023-03-01T10:05:47;25.90;;;16.20;;
40637;SDS011;26336;44.696;10.622;2023-03-01T10:09:12;26.57;;;15.60;;
40637;SDS011;26336;44.696;10.622;2023-03-01T10:12:20;27.93;;;16.03;;
40637;SDS011;26336;44.696;10.622;2023-03-01T10:15:49;25.00;;;16.57;;
40637;SDS011;26336;44.696;10.622;2023-03-01T10:18:59;22.63;;;14.73;;
40637;SDS011;26336;44.696;10.622;2023-03-01T10:22:19;23.33;;;16.97;;
40637;SDS011;26336;44.696;10.622;2023-03-01T10:31:54;25.58;;;16.33;;
40637;SDS011;26336;44.696;10.622;2023-03-01T10:34:59;22.80;;;14.07;;
40637;SDS011;26336;44.696;10.622;2023-03-01T10:41:09;23.03;;;15.63;;
40637;SDS011;26336;44.696;10.622;2023-03-01T10:44:33;22.27;;;15.53;;
40637;SDS011;26336;44.696;10.622;2023-03-01T10:47:43;22.50;;;15.30;;
40637;SDS011;26336;44.696;10.622;2023-03-01T10:50:48;24.83;;;17.50;;
40637;SDS011;26336;44.696;10.622;2023-03-01T10:57:35;23.07;;;16.27;;
40637;SDS011;26336;44.696;10.622;2023-03-01T11:00:48;22.83;;;15.13;;
40637;SDS011;26336;44.696;10.622;2023-03-01T11:07:09;25.53;;;15.50;;
40637;SDS011;26336;44.696;10.622;2023-03-01T11:10:16;22.33;;;15.83;;
40637;SDS011;26336;44.696;10.622;2023-03-01T11:13:31;21.53;;;15.07;;
40637;SDS011;26336;44.696;10.622;2023-03-01T11:16:36;25.43;;;16.03;;
40637;SDS011;26336;44.696;10.622;2023-03-01T11:19:42;21.47;;;15.37;;
40637;SDS011;26336;44.696;10.622;2023-03-01T11:23:04;22.47;;;15.07;;
40637;SDS011;26336;44.696;10.622;2023-03-01T11:26:13;24.20;;;15.77;;
40637;SDS011;26336;44.696;10.622;2023-03-01T11:32:35;22.50;;;14.83;;
40637;SDS011;26336;44.696;10.622;2023-03-01T11:35:49;26.97;;;17.00;;
40637;SDS011;26336;44.696;10.622;2023-03-01T11:39:05;28.00;;;15.77;;
40637;SDS011;26336;44.696;10.622;2023-03-01T12:06:19;29.25;;;18.10;;
40637;SDS011;26336;44.696;10.622;2023-03-01T12:20:21;26.63;;;16.57;;
40637;SDS011;26336;44.696;10.622;2023-03-01T12:33:23;26.70;;;17.63;;
40637;SDS011;26336;44.696;10.622;2023-03-01T12:36:44;27.10;;;17.73;;
40637;SDS011;26336;44.696;10.622;2023-03-01T12:50:11;29.97;;;17.83;;
40637;SDS011;26336;44.696;10.622;2023-03-01T12:53:28;29.37;;;18.00;;
40637;SDS011;26336;44.696;10.622;2023-03-01T12:56:42;28.33;;;18.37;;
40637;SDS011;26336;44.696;10.622;2023-03-01T13:03:14;26.93;;;17.77;;
40637;SDS011;26336;44.696;10.622;2023-03-01T13:10:15;30.10;;;19.17;;
40637;SDS011;26336;44.696;10.622;2023-03-01T13:13:30;28.93;;;18.53;;
40637;SDS011;26336;44.696;10.622;2023-03-01T13:16:40;28.77;;;18.13;;
40637;SDS011;26336;44.696;10.622;2023-03-01T13:19:57;27.55;;;18.58;;
40637;SDS011;26336;44.696;10.622;2023-03-01T13:23:03;35.97;;;20.80;;
40637;SDS011;26336;44.696;10.622;2023-03-01T13:26:14;31.47;;;18.47;;
40637;SDS011;26336;44.696;10.622;2023-03-01T13:29:27;28.67;;;18.20;;
40637;SDS011;26336;44.696;10.622;2023-03-01T13:32:46;30.13;;;19.03;;
40637;SDS011;26336;44.696;10.622;2023-03-01T13:35:50;31.07;;;19.50;;
40637;SDS011;26336;44.696;10.622;2023-03-01T13:42:03;29.70;;;18.10;;
40637;SDS011;26336;44.696;10.622;2023-03-01T13:45:38;28.93;;;19.23;;
40637;SDS011;26336;44.696;10.622;2023-03-01T13:48:45;30.03;;;18.37;;
40637;SDS011;26336;44.696;10.622;2023-03-01T13:51:54;28.43;;;18.67;;
40637;SDS011;26336;44.696;10.622;2023-03-01T13:54:58;29.90;;;20.57;;
40637;SDS011;26336;44.696;10.622;2023-03-01T13:58:14;28.00;;;18.43;;
40637;SDS011;26336;44.696;10.622;2023-03-01T14:01:23;26.50;;;16.97;;
40637;SDS011;26336;44.696;10.622;2023-03-01T14:04:33;28.73;;;19.03;;
40637;SDS011;26336;44.696;10.622;2023-03-01T14:07:51;26.13;;;18.13;;
40637;SDS011;26336;44.696;10.622;2023-03-01T14:20:44;27.53;;;17.37;;
40637;SDS011;26336;44.696;10.622;2023-03-01T14:23:54;27.80;;;18.13;;
40637;SDS011;26336;44.696;10.622;2023-03-01T14:27:00;29.13;;;18.50;;
40637;SDS011;26336;44.696;10.622;2023-03-01T14:36:45;27.48;;;18.13;;
40637;SDS011;26336;44.696;10.622;2023-03-01T14:39:49;29.43;;;17.70;;
40637;SDS011;26336;44.696;10.622;2023-03-01T14:42:53;29.00;;;18.27;;
40637;SDS011;26336;44.696;10.622;2023-03-01T14:45:59;26.87;;;17.20;;
40637;SDS011;26336;44.696;10.622;2023-03-01T14:49:10;24.27;;;16.90;;
40637;SDS011;26336;44.696;10.622;2023-03-01T14:52:18;27.23;;;17.83;;
40637;SDS011;26336;44.696;10.622;2023-03-01T14:55:32;29.17;;;17.30;;
40637;SDS011;26336;44.696;10.622;2023-03-01T14:58:44;28.67;;;18.40;;
40637;SDS011;26336;44.696;10.622;2023-03-01T15:01:47;31.93;;;19.70;;
40637;SDS011;26336;44.696;10.622;2023-03-01T15:04:55;29.83;;;19.07;;
40637;SDS011;26336;44.696;10.622;2023-03-01T15:08:04;32.23;;;19.20;;
40637;SDS011;26336;44.696;10.622;2023-03-01T15:14:38;29.37;;;19.57;;
40637;SDS011;26336;44.696;10.622;2023-03-01T15:17:49;29.90;;;18.77;;
40637;SDS011;26336;44.696;10.622;2023-03-01T15:21:09;28.48;;;18.60;;
40637;SDS011;26336;44.696;10.622;2023-03-01T15:24:20;30.47;;;19.60;;
40637;SDS011;26336;44.696;10.622;2023-03-01T15:27:28;28.73;;;17.63;;
40637;SDS011;26336;44.696;10.622;2023-03-01T15:30:32;29.77;;;18.60;;
40637;SDS011;26336;44.696;10.622;2023-03-01T15:33:41;31.23;;;18.20;;
40637;SDS011;26336;44.696;10.622;2023-03-01T15:36:51;27.37;;;17.60;;
40637;SDS011;26336;44.696;10.622;2023-03-01T15:39:57;28.27;;;18.63;;
40637;SDS011;26336;44.696;10.622;2023-03-01T15:43:02;30.97;;;18.87;;
40637;SDS011;26336;44.696;10.622;2023-03-01T15:46:19;26.83;;;17.27;;
40637;SDS011;26336;44.696;10.622;2023-03-01T15:52:40;28.90;;;18.13;;
40637;SDS011;26336;44.696;10.622;2023-03-01T15:55:45;28.53;;;18.97;;
40637;SDS011;26336;44.696;10.622;2023-03-01T15:58:53;28.60;;;18.70;;
40637;SDS011;26336;44.696;10.622;2023-03-01T16:02:01;27.70;;;18.83;;
40637;SDS011;26336;44.696;10.622;2023-03-01T16:05:05;26.90;;;18.47;;
40637;SDS011;26336;44.696;10.622;2023-03-01T16:08:19;30.30;;;18.10;;
40637;SDS011;26336;44.696;10.622;2023-03-01T16:11:23;30.43;;;19.30;;
40637;SDS011;26336;44.696;10.622;2023-03-01T16:14:27;29.73;;;19.10;;
40637;SDS011;26336;44.696;10.622;2023-03-01T16:17:31;32.27;;;18.93;;
40637;SDS011;26336;44.696;10.622;2023-03-01T16:20:35;35.77;;;20.57;;
40637;SDS011;26336;44.696;10.622;2023-03-01T16:23:39;32.77;;;20.80;;
40637;SDS011;26336;44.696;10.622;2023-03-01T16:26:43;32.33;;;19.77;;
40637;SDS011;26336;44.696;10.622;2023-03-01T16:29:47;30.80;;;19.77;;
40637;SDS011;26336;44.696;10.622;2023-03-01T16:32:51;29.30;;;18.87;;
40637;SDS011;26336;44.696;10.622;2023-03-01T16:35:55;28.13;;;18.57;;
40637;SDS011;26336;44.696;10.622;2023-03-01T16:39:00;28.20;;;18.50;;
40637;SDS011;26336;44.696;10.622;2023-03-01T16:42:04;27.43;;;18.23;;
40637;SDS011;26336;44.696;10.622;2023-03-01T16:45:08;28.33;;;19.63;;
40637;SDS011;26336;44.696;10.622;2023-03-01T16:48:14;28.60;;;18.87;;
40637;SDS011;26336;44.696;10.622;2023-03-01T16:51:18;28.33;;;20.33;;
40637;SDS011;26336;44.696;10.622;2023-03-01T16:54:23;29.07;;;19.53;;
40637;SDS011;26336;44.696;10.622;2023-03-01T16:57:27;27.87;;;19.37;;
40637;SDS011;26336;44.696;10.622;2023-03-01T17:00:31;27.03;;;19.33;;
40637;SDS011;26336;44.696;10.622;2023-03-01T17:03:35;27.90;;;19.50;;
40637;SDS011;26336;44.696;10.622;2023-03-01T17:06:38;29.70;;;19.43;;
40637;SDS011;26336;44.696;10.622;2023-03-01T17:09:42;27.67;;;18.43;;
40637;SDS011;26336;44.696;10.622;2023-03-01T17:12:49;27.20;;;18.83;;
40637;SDS011;26336;44.696;10.622;2023-03-01T17:15:57;28.23;;;20.53;;
40637;SDS011;26336;44.696;10.622;2023-03-01T17:19:01;28.83;;;19.93;;
40637;SDS011;26336;44.696;10.622;2023-03-01T17:22:05;27.47;;;19.73;;
40637;SDS011;26336;44.696;10.622;2023-03-01T17:25:10;29.03;;;20.27;;
40637;SDS011;26336;44.696;10.622;2023-03-01T17:28:15;30.57;;;20.57;;
40637;SDS011;26336;44.696;10.622;2023-03-01T17:31:19;30.93;;;20.93;;
40637;SDS011;26336;44.696;10.622;2023-03-01T17:34:24;31.53;;;20.93;;
40637;SDS011;26336;44.696;10.622;2023-03-01T17:37:29;30.37;;;21.10;;
40637;SDS011;26336;44.696;10.622;2023-03-01T17:40:33;29.63;;;20.43;;
40637;SDS011;26336;44.696;10.622;2023-03-01T17:43:38;32.03;;;21.87;;
40637;SDS011;26336;44.696;10.622;2023-03-01T17:46:42;32.10;;;21.30;;
40637;SDS011;26336;44.696;10.622;2023-03-01T17:49:46;28.90;;;20.00;;
40637;SDS011;26336;44.696;10.622;2023-03-01T17:52:50;29.60;;;21.23;;
40637;SDS011;26336;44.696;10.622;2023-03-01T17:55:58;29.33;;;20.97;;
40637;SDS011;26336;44.696;10.622;2023-03-01T17:59:04;29.80;;;20.57;;
40637;SDS011;26336;44.696;10.622;2023-03-01T18:02:12;28.70;;;20.73;;
40637;SDS011;26336;44.696;10.622;2023-03-01T18:05:17;28.90;;;20.23;;
40637;SDS011;26336;44.696;10.622;2023-03-01T18:08:21;28.20;;;19.00;;
40637;SDS011;26336;44.696;10.622;2023-03-01T18:11:25;28.60;;;19.70;;
40637;SDS011;26336;44.696;10.622;2023-03-01T18:14:29;30.17;;;20.00;;
40637;SDS011;26336;44.696;10.622;2023-03-01T18:17:36;28.43;;;19.83;;
40637;SDS011;26336;44.696;10.622;2023-03-01T18:20:40;28.27;;;19.20;;
40637;SDS011;26336;44.696;10.622;2023-03-01T18:23:44;29.93;;;20.70;;
40637;SDS011;26336;44.696;10.622;2023-03-01T18:26:48;27.40;;;18.87;;
40637;SDS011;26336;44.696;10.622;2023-03-01T18:29:52;72.50;;;45.50;;
40637;SDS011;26336;44.696;10.622;2023-03-01T18:32:57;46.57;;;30.27;;
40637;SDS011;26336;44.696;10.622;2023-03-01T18:36:01;45.13;;;29.70;;
40637;SDS011;26336;44.696;10.622;2023-03-01T18:39:06;130.07;;;67.43;;
40637;SDS011;26336;44.696;10.622;2023-03-01T18:42:10;40.07;;;25.73;;
40637;SDS011;26336;44.696;10.622;2023-03-01T18:45:18;29.67;;;20.87;;
40637;SDS011;26336;44.696;10.622;2023-03-01T18:48:23;28.13;;;21.03;;
40637;SDS011;26336;44.696;10.622;2023-03-01T18:51:27;32.13;;;21.73;;
40637;SDS011;26336;44.696;10.622;2023-03-01T18:54:31;30.47;;;21.40;;
40637;SDS011;26336;44.696;10.622;2023-03-01T18:57:35;30.57;;;21.10;;
40637;SDS011;26336;44.696;10.622;2023-03-01T19:00:39;32.07;;;20.63;;
40637;SDS011;26336;44.696;10.622;2023-03-01T19:03:43;29.23;;;21.57;;
40637;SDS011;26336;44.696;10.622;2023-03-01T19:06:48;30.20;;;21.93;;
40637;SDS011;26336;44.696;10.622;2023-03-01T19:09:52;31.30;;;23.07;;
40637;SDS011;26336;44.696;10.622;2023-03-01T19:12:56;33.27;;;21.57;;
40637;SDS011;26336;44.696;10.622;2023-03-01T19:16:03;28.87;;;21.23;;
40637;SDS011;26336;44.696;10.622;2023-03-01T19:19:16;27.97;;;21.10;;
40637;SDS011;26336;44.696;10.622;2023-03-01T19:22:21;30.50;;;21.93;;
40637;SDS011;26336;44.696;10.622;2023-03-01T19:25:25;33.67;;;22.27;;
40637;SDS011;26336;44.696;10.622;2023-03-01T19:28:29;34.07;;;23.20;;
40637;SDS011;26336;44.696;10.622;2023-03-01T19:31:33;32.33;;;23.03;;
40637;SDS011;26336;44.696;10.622;2023-03-01T19:34:37;31.57;;;22.37;;
40637;SDS011;26336;44.696;10.622;2023-03-01T19:37:42;29.90;;;22.03;;
40637;SDS011;26336;44.696;10.622;2023-03-01T19:40:46;33.07;;;24.60;;
40637;SDS011;26336;44.696;10.622;2023-03-01T19:43:51;31.63;;;21.93;;
40637;SDS011;26336;44.696;10.622;2023-03-01T19:46:56;27.77;;;20.33;;
40637;SDS011;26336;44.696;10.622;2023-03-01T19:50:00;29.73;;;21.70;;
40637;SDS011;26336;44.696;10.622;2023-03-01T19:53:04;29.57;;;20.33;;
40637;SDS011;26336;44.696;10.622;2023-03-01T19:56:09;27.73;;;21.33;;
40637;SDS011;26336;44.696;10.622;2023-03-01T19:59:13;28.40;;;21.03;;
40637;SDS011;26336;44.696;10.622;2023-03-01T20:02:18;26.10;;;19.30;;
40637;SDS011;26336;44.696;10.622;2023-03-01T20:05:22;28.57;;;20.47;;